KMYL

Details ICAO KMYL (MYL)
Name Mc Call Muni
Region United States
Timezone America/Boise (UTC-6.0)
Plans Departing 33
Arriving 39
Stats Elevation 5,020 ft / 1,530 m (AMSL)
Location 44.888700° -116.102000°
Runways 1
Magnetic Variation 13.423° E
Sunrise 2019-04-24 12:46:09 UTC / 2019-04-24 06:46:09 Local
Sunset 2019-04-25 02:41:13 UTC / 2019-04-24 20:41:13 Local
Advertisement - Login to hide

Runways

ID Width Length Bearing (true/mag) Surface Threshold Overrun Markings Lighting
16 75 ft / 23 m 6,113 ft / 1,863 m 178.61° / 165.19° ASPHALT 0 ft / 0 m 56 ft / 17 m APP EDGE THRESHOLD REIL-OMNI
34 75 ft / 23 m 6,113 ft / 1,863 m 358.61° / 345.19° ASPHALT 0 ft / 0 m 0 ft / 0 m APP EDGE THRESHOLD REIL-OMNI

Map

Weather


0- 5 10 15 20 25 30 35+ Temperature / °C

Clouds and Precipitation
Forecast for 2019-04-25 06:00 UTC. Updated 3 hours ago

Ground ~20,000 ft ~40,000 ft Winds

METAR

KMYL 250551Z AUTO 01007KT 10SM CLR 04/M04 A3017 RMK AO2 SLP212 T00441039 10139 20039 51010 $

TAF

TAF KMYL 250520Z 2506/2606 VRB04KT P6SM SCT250

Frequencies

Recorded 119.92 MHz ASOS
Unicom 122.80 MHz CTAF/UNICOM
Warning: Do not use this data for real-world aviation or navigation. No guarantee of current accuracy is given.